sensor_id;sensor_type;location;lat;lon;timestamp;temperature;humidity
3334;DHT22;1679;50.392;8.008;2023-08-01T00:02:23;16.50;99.90
3334;DHT22;1679;50.392;8.008;2023-08-01T00:04:48;16.50;99.90
3334;DHT22;1679;50.392;8.008;2023-08-01T00:07:14;16.50;99.90
3334;DHT22;1679;50.392;8.008;2023-08-01T00:09:39;16.50;99.90
3334;DHT22;1679;50.392;8.008;2023-08-01T00:12:06;16.50;99.90
3334;DHT22;1679;50.392;8.008;2023-08-01T00:14:32;16.50;99.90
3334;DHT22;1679;50.392;8.008;2023-08-01T00:16:58;16.50;99.90
3334;DHT22;1679;50.392;8.008;2023-08-01T00:19:23;16.50;99.90
3334;DHT22;1679;50.392;8.008;2023-08-01T00:21:50;16.50;99.90
3334;DHT22;1679;50.392;8.008;2023-08-01T00:24:15;16.50;99.90
3334;DHT22;1679;50.392;8.008;2023-08-01T00:26:41;16.50;99.90
3334;DHT22;1679;50.392;8.008;2023-08-01T00:29:07;16.50;99.90
3334;DHT22;1679;50.392;8.008;2023-08-01T00:31:33;16.50;99.90
3334;DHT22;1679;50.392;8.008;2023-08-01T00:33:59;16.60;99.90
3334;DHT22;1679;50.392;8.008;2023-08-01T00:36:25;16.60;99.90
3334;DHT22;1679;50.392;8.008;2023-08-01T00:38:52;16.60;99.90
3334;DHT22;1679;50.392;8.008;2023-08-01T00:41:18;16.60;99.90
3334;DHT22;1679;50.392;8.008;2023-08-01T00:43:43;16.60;99.90
3334;DHT22;1679;50.392;8.008;2023-08-01T00:46:09;16.60;99.90
3334;DHT22;1679;50.392;8.008;2023-08-01T00:48:35;16.60;99.90
3334;DHT22;1679;50.392;8.008;2023-08-01T00:51:04;16.60;99.90
3334;DHT22;1679;50.392;8.008;2023-08-01T00:53:31;16.60;99.90
3334;DHT22;1679;50.392;8.008;2023-08-01T00:55:58;16.70;99.90
3334;DHT22;1679;50.392;8.008;2023-08-01T00:58:25;16.70;99.90
3334;DHT22;1679;50.392;8.008;2023-08-01T01:00:51;16.70;99.90
3334;DHT22;1679;50.392;8.008;2023-08-01T01:03:17;16.60;99.90
3334;DHT22;1679;50.392;8.008;2023-08-01T01:05:59;16.60;99.90
3334;DHT22;1679;50.392;8.008;2023-08-01T01:08:28;16.60;99.90
3334;DHT22;1679;50.392;8.008;2023-08-01T01:10:55;16.60;99.90
3334;DHT22;1679;50.392;8.008;2023-08-01T01:13:20;16.60;99.90
3334;DHT22;1679;50.392;8.008;2023-08-01T01:15:46;16.60;99.90
3334;DHT22;1679;50.392;8.008;2023-08-01T01:18:11;16.60;99.90
3334;DHT22;1679;50.392;8.008;2023-08-01T01:20:38;16.70;99.90
3334;DHT22;1679;50.392;8.008;2023-08-01T01:23:05;16.60;99.90
3334;DHT22;1679;50.392;8.008;2023-08-01T01:25:32;16.60;99.90
3334;DHT22;1679;50.392;8.008;2023-08-01T01:27:59;16.60;99.90
3334;DHT22;1679;50.392;8.008;2023-08-01T01:30:25;16.70;99.90
3334;DHT22;1679;50.392;8.008;2023-08-01T01:32:52;16.60;99.90
3334;DHT22;1679;50.392;8.008;2023-08-01T01:35:18;16.70;99.90
3334;DHT22;1679;50.392;8.008;2023-08-01T01:37:43;16.70;99.90
3334;DHT22;1679;50.392;8.008;2023-08-01T01:40:09;16.70;99.90
3334;DHT22;1679;50.392;8.008;2023-08-01T01:42:34;16.70;99.90
3334;DHT22;1679;50.392;8.008;2023-08-01T01:45:01;16.70;99.90
3334;DHT22;1679;50.392;8.008;2023-08-01T01:47:28;16.70;99.90
3334;DHT22;1679;50.392;8.008;2023-08-01T01:49:53;16.70;99.90
3334;DHT22;1679;50.392;8.008;2023-08-01T01:52:20;16.70;99.90
3334;DHT22;1679;50.392;8.008;2023-08-01T01:54:47;16.80;99.90
3334;DHT22;1679;50.392;8.008;2023-08-01T01:57:12;16.80;99.90
3334;DHT22;1679;50.392;8.008;2023-08-01T01:59:38;16.80;99.90
3334;DHT22;1679;50.392;8.008;2023-08-01T02:02:03;16.80;99.90
3334;DHT22;1679;50.392;8.008;2023-08-01T02:04:29;16.80;99.90
3334;DHT22;1679;50.392;8.008;2023-08-01T02:06:55;16.80;99.90
3334;DHT22;1679;50.392;8.008;2023-08-01T02:09:20;16.80;99.90
3334;DHT22;1679;50.392;8.008;2023-08-01T02:11:47;16.80;99.90
3334;DHT22;1679;50.392;8.008;2023-08-01T02:14:13;16.80;99.90
3334;DHT22;1679;50.392;8.008;2023-08-01T02:16:38;16.90;99.90
3334;DHT22;1679;50.392;8.008;2023-08-01T02:19:05;16.90;99.90
3334;DHT22;1679;50.392;8.008;2023-08-01T02:21:31;16.90;99.90
3334;DHT22;1679;50.392;8.008;2023-08-01T02:23:57;16.90;99.90
3334;DHT22;1679;50.392;8.008;2023-08-01T02:26:23;16.80;99.90
3334;DHT22;1679;50.392;8.008;2023-08-01T02:28:50;16.90;99.90
3334;DHT22;1679;50.392;8.008;2023-08-01T02:31:17;16.90;99.90
3334;DHT22;1679;50.392;8.008;2023-08-01T02:33:42;16.90;99.90
3334;DHT22;1679;50.392;8.008;2023-08-01T02:36:08;16.90;99.90
3334;DHT22;1679;50.392;8.008;2023-08-01T02:38:34;16.90;99.90
3334;DHT22;1679;50.392;8.008;2023-08-01T02:40:59;16.90;99.90
3334;DHT22;1679;50.392;8.008;2023-08-01T02:43:25;16.90;99.90
3334;DHT22;1679;50.392;8.008;2023-08-01T02:45:51;16.90;99.90
3334;DHT22;1679;50.392;8.008;2023-08-01T02:48:18;16.90;99.90
3334;DHT22;1679;50.392;8.008;2023-08-01T02:50:43;16.90;99.90
3334;DHT22;1679;50.392;8.008;2023-08-01T02:53:08;16.90;99.90
3334;DHT22;1679;50.392;8.008;2023-08-01T02:55:34;16.90;99.90
3334;DHT22;1679;50.392;8.008;2023-08-01T02:57:59;16.80;99.90
3334;DHT22;1679;50.392;8.008;2023-08-01T03:00:26;16.90;99.90
3334;DHT22;1679;50.392;8.008;2023-08-01T03:02:52;16.90;99.90
3334;DHT22;1679;50.392;8.008;2023-08-01T03:05:18;16.90;99.90
3334;DHT22;1679;50.392;8.008;2023-08-01T03:07:43;16.80;99.90
3334;DHT22;1679;50.392;8.008;2023-08-01T03:10:09;16.80;99.90
3334;DHT22;1679;50.392;8.008;2023-08-01T03:12:36;16.80;99.90
3334;DHT22;1679;50.392;8.008;2023-08-01T03:15:03;16.90;99.90
3334;DHT22;1679;50.392;8.008;2023-08-01T03:17:28;16.90;99.90
3334;DHT22;1679;50.392;8.008;2023-08-01T03:19:54;16.90;99.90
3334;DHT22;1679;50.392;8.008;2023-08-01T03:22:19;16.90;99.90
3334;DHT22;1679;50.392;8.008;2023-08-01T03:24:45;16.90;99.90
3334;DHT22;1679;50.392;8.008;2023-08-01T03:27:12;16.90;99.90
3334;DHT22;1679;50.392;8.008;2023-08-01T03:29:37;16.90;99.90
3334;DHT22;1679;50.392;8.008;2023-08-01T03:32:04;17.00;99.90
3334;DHT22;1679;50.392;8.008;2023-08-01T03:34:30;17.00;99.90
3334;DHT22;1679;50.392;8.008;2023-08-01T03:36:55;17.00;99.90
3334;DHT22;1679;50.392;8.008;2023-08-01T03:39:21;17.00;99.90
3334;DHT22;1679;50.392;8.008;2023-08-01T03:41:46;17.10;99.90
3334;DHT22;1679;50.392;8.008;2023-08-01T03:44:12;17.10;99.90
3334;DHT22;1679;50.392;8.008;2023-08-01T03:46:38;17.10;99.90
3334;DHT22;1679;50.392;8.008;2023-08-01T03:49:03;17.10;99.90
3334;DHT22;1679;50.392;8.008;2023-08-01T03:51:29;17.10;99.90
3334;DHT22;1679;50.392;8.008;2023-08-01T03:53:54;17.10;99.90
3334;DHT22;1679;50.392;8.008;2023-08-01T03:56:21;17.10;99.90
3334;DHT22;1679;50.392;8.008;2023-08-01T03:58:47;17.10;99.90
3334;DHT22;1679;50.392;8.008;2023-08-01T04:01:14;17.10;99.90
3334;DHT22;1679;50.392;8.008;2023-08-01T04:03:39;17.10;99.90
3334;DHT22;1679;50.392;8.008;2023-08-01T04:06:05;17.10;99.90
3334;DHT22;1679;50.392;8.008;2023-08-01T04:08:32;17.10;99.90
3334;DHT22;1679;50.392;8.008;2023-08-01T04:10:58;17.10;99.90
3334;DHT22;1679;50.392;8.008;2023-08-01T04:13:24;17.10;99.90
3334;DHT22;1679;50.392;8.008;2023-08-01T04:15:50;17.10;99.90
3334;DHT22;1679;50.392;8.008;2023-08-01T04:18:15;17.10;99.90
3334;DHT22;1679;50.392;8.008;2023-08-01T04:20:41;17.00;99.90
3334;DHT22;1679;50.392;8.008;2023-08-01T04:23:06;17.00;99.90
3334;DHT22;1679;50.392;8.008;2023-08-01T04:25:31;17.00;99.90
3334;DHT22;1679;50.392;8.008;2023-08-01T04:27:58;17.00;99.90
3334;DHT22;1679;50.392;8.008;2023-08-01T04:30:25;17.10;99.90
3334;DHT22;1679;50.392;8.008;2023-08-01T04:32:50;17.00;99.90
3334;DHT22;1679;50.392;8.008;2023-08-01T04:35:16;16.80;99.90
3334;DHT22;1679;50.392;8.008;2023-08-01T04:37:41;16.80;99.90
3334;DHT22;1679;50.392;8.008;2023-08-01T04:40:09;16.70;99.90
3334;DHT22;1679;50.392;8.008;2023-08-01T04:42:34;16.60;99.90
3334;DHT22;1679;50.392;8.008;2023-08-01T04:45:00;16.60;99.90
3334;DHT22;1679;50.392;8.008;2023-08-01T04:47:29;16.60;99.90
3334;DHT22;1679;50.392;8.008;2023-08-01T04:49:54;16.50;99.90
3334;DHT22;1679;50.392;8.008;2023-08-01T04:52:21;16.50;99.90
3334;DHT22;1679;50.392;8.008;2023-08-01T04:54:46;16.50;99.90
3334;DHT22;1679;50.392;8.008;2023-08-01T04:57:12;16.50;99.90
3334;DHT22;1679;50.392;8.008;2023-08-01T04:59:37;16.40;99.90
3334;DHT22;1679;50.392;8.008;2023-08-01T05:02:03;16.40;99.90
3334;DHT22;1679;50.392;8.008;2023-08-01T05:04:28;16.40;99.90
3334;DHT22;1679;50.392;8.008;2023-08-01T05:06:54;16.30;99.90
3334;DHT22;1679;50.392;8.008;2023-08-01T05:09:20;16.30;99.90
3334;DHT22;1679;50.392;8.008;2023-08-01T05:11:46;16.20;99.90
3334;DHT22;1679;50.392;8.008;2023-08-01T05:14:12;16.20;99.90
3334;DHT22;1679;50.392;8.008;2023-08-01T05:16:38;16.10;99.90
3334;DHT22;1679;50.392;8.008;2023-08-01T05:19:03;16.10;99.90
3334;DHT22;1679;50.392;8.008;2023-08-01T05:21:29;16.10;99.90
3334;DHT22;1679;50.392;8.008;2023-08-01T05:23:54;16.10;99.90
3334;DHT22;1679;50.392;8.008;2023-08-01T05:26:20;16.00;99.90
3334;DHT22;1679;50.392;8.008;2023-08-01T05:28:46;16.00;99.90
3334;DHT22;1679;50.392;8.008;2023-08-01T05:31:12;16.00;99.90
3334;DHT22;1679;50.392;8.008;2023-08-01T05:33:38;16.00;99.90
3334;DHT22;1679;50.392;8.008;2023-08-01T05:36:04;16.00;99.90
3334;DHT22;1679;50.392;8.008;2023-08-01T05:38:29;16.00;99.90
3334;DHT22;1679;50.392;8.008;2023-08-01T05:40:56;16.00;99.90
3334;DHT22;1679;50.392;8.008;2023-08-01T05:43:21;16.00;99.90
3334;DHT22;1679;50.392;8.008;2023-08-01T05:45:48;16.00;99.90
3334;DHT22;1679;50.392;8.008;2023-08-01T05:48:14;16.00;99.90
3334;DHT22;1679;50.392;8.008;2023-08-01T05:50:40;15.90;99.90
3334;DHT22;1679;50.392;8.008;2023-08-01T05:53:05;15.90;99.90
3334;DHT22;1679;50.392;8.008;2023-08-01T05:55:33;16.00;99.90
3334;DHT22;1679;50.392;8.008;2023-08-01T05:57:58;15.90;99.90
3334;DHT22;1679;50.392;8.008;2023-08-01T06:00:24;15.90;99.90
3334;DHT22;1679;50.392;8.008;2023-08-01T06:02:49;16.00;99.90
3334;DHT22;1679;50.392;8.008;2023-08-01T06:05:15;16.00;99.90
3334;DHT22;1679;50.392;8.008;2023-08-01T06:07:43;16.00;99.90
3334;DHT22;1679;50.392;8.008;2023-08-01T06:10:09;16.00;99.90
3334;DHT22;1679;50.392;8.008;2023-08-01T06:12:36;16.00;99.90
3334;DHT22;1679;50.392;8.008;2023-08-01T06:15:02;16.10;99.90
3334;DHT22;1679;50.392;8.008;2023-08-01T06:17:27;16.20;99.90
3334;DHT22;1679;50.392;8.008;2023-08-01T06:19:53;16.30;99.90
3334;DHT22;1679;50.392;8.008;2023-08-01T06:22:20;16.30;99.90
3334;DHT22;1679;50.392;8.008;2023-08-01T06:24:45;16.40;99.90
3334;DHT22;1679;50.392;8.008;2023-08-01T06:27:11;16.50;99.90
3334;DHT22;1679;50.392;8.008;2023-08-01T06:29:36;16.60;99.90
3334;DHT22;1679;50.392;8.008;2023-08-01T06:32:03;16.70;99.90
3334;DHT22;1679;50.392;8.008;2023-08-01T06:34:28;16.80;99.90
3334;DHT22;1679;50.392;8.008;2023-08-01T06:36:55;16.90;99.90
3334;DHT22;1679;50.392;8.008;2023-08-01T06:39:21;16.90;99.90
3334;DHT22;1679;50.392;8.008;2023-08-01T06:41:46;17.00;99.90
3334;DHT22;1679;50.392;8.008;2023-08-01T06:44:12;17.00;99.90
3334;DHT22;1679;50.392;8.008;2023-08-01T06:46:39;17.00;99.90
3334;DHT22;1679;50.392;8.008;2023-08-01T06:49:04;17.10;99.90
3334;DHT22;1679;50.392;8.008;2023-08-01T06:51:29;17.00;99.90
3334;DHT22;1679;50.392;8.008;2023-08-01T06:53:55;17.00;99.90
3334;DHT22;1679;50.392;8.008;2023-08-01T06:56:22;17.00;99.90
3334;DHT22;1679;50.392;8.008;2023-08-01T06:58:48;17.00;99.90
3334;DHT22;1679;50.392;8.008;2023-08-01T07:01:15;16.90;99.90
3334;DHT22;1679;50.392;8.008;2023-08-01T07:03:40;16.90;99.90
3334;DHT22;1679;50.392;8.008;2023-08-01T07:06:06;16.90;99.90
3334;DHT22;1679;50.392;8.008;2023-08-01T07:08:33;17.10;99.90
3334;DHT22;1679;50.392;8.008;2023-08-01T07:10:59;17.20;99.90
3334;DHT22;1679;50.392;8.008;2023-08-01T07:13:25;17.30;99.90
3334;DHT22;1679;50.392;8.008;2023-08-01T07:15:51;17.40;99.90
3334;DHT22;1679;50.392;8.008;2023-08-01T07:18:16;17.60;99.90
3334;DHT22;1679;50.392;8.008;2023-08-01T07:20:42;18.00;99.90
3334;DHT22;1679;50.392;8.008;2023-08-01T07:23:08;18.70;99.90
3334;DHT22;1679;50.392;8.008;2023-08-01T07:25:34;19.30;99.90
3334;DHT22;1679;50.392;8.008;2023-08-01T07:27:59;19.60;99.90
3334;DHT22;1679;50.392;8.008;2023-08-01T07:30:25;19.90;99.90
3334;DHT22;1679;50.392;8.008;2023-08-01T07:32:51;20.40;99.90
3334;DHT22;1679;50.392;8.008;2023-08-01T07:35:17;20.70;99.90
3334;DHT22;1679;50.392;8.008;2023-08-01T07:37:42;21.20;99.90
3334;DHT22;1679;50.392;8.008;2023-08-01T07:40:08;21.40;99.90
3334;DHT22;1679;50.392;8.008;2023-08-01T07:42:36;20.60;99.90
3334;DHT22;1679;50.392;8.008;2023-08-01T07:45:02;20.00;99.90
3334;DHT22;1679;50.392;8.008;2023-08-01T07:47:28;20.30;99.90
3334;DHT22;1679;50.392;8.008;2023-08-01T07:49:53;20.00;99.90
3334;DHT22;1679;50.392;8.008;2023-08-01T07:52:19;19.90;99.90
3334;DHT22;1679;50.392;8.008;2023-08-01T07:54:45;20.00;99.90
3334;DHT22;1679;50.392;8.008;2023-08-01T07:57:10;20.50;99.90
3334;DHT22;1679;50.392;8.008;2023-08-01T07:59:36;21.00;99.90
3334;DHT22;1679;50.392;8.008;2023-08-01T08:02:02;21.60;99.90
3334;DHT22;1679;50.392;8.008;2023-08-01T08:04:27;22.00;99.90
3334;DHT22;1679;50.392;8.008;2023-08-01T08:06:53;21.70;99.90
3334;DHT22;1679;50.392;8.008;2023-08-01T08:09:20;21.70;99.90
3334;DHT22;1679;50.392;8.008;2023-08-01T08:11:48;21.90;99.90
3334;DHT22;1679;50.392;8.008;2023-08-01T08:14:14;21.50;99.90
3334;DHT22;1679;50.392;8.008;2023-08-01T08:16:40;21.00;99.90
3334;DHT22;1679;50.392;8.008;2023-08-01T08:19:06;21.20;99.90
3334;DHT22;1679;50.392;8.008;2023-08-01T08:21:31;22.00;99.90
3334;DHT22;1679;50.392;8.008;2023-08-01T08:23:57;22.10;99.90
3334;DHT22;1679;50.392;8.008;2023-08-01T08:26:22;21.70;99.90
3334;DHT22;1679;50.392;8.008;2023-08-01T08:28:49;21.10;99.90
3334;DHT22;1679;50.392;8.008;2023-08-01T08:31:14;20.90;99.90
3334;DHT22;1679;50.392;8.008;2023-08-01T08:33:40;21.30;99.90
3334;DHT22;1679;50.392;8.008;2023-08-01T08:36:05;21.40;99.90
3334;DHT22;1679;50.392;8.008;2023-08-01T08:38:31;21.10;99.90
3334;DHT22;1679;50.392;8.008;2023-08-01T08:41:10;20.70;99.90
3334;DHT22;1679;50.392;8.008;2023-08-01T08:43:37;20.80;99.90
3334;DHT22;1679;50.392;8.008;2023-08-01T08:46:04;20.90;99.90
3334;DHT22;1679;50.392;8.008;2023-08-01T08:48:31;20.90;99.90
3334;DHT22;1679;50.392;8.008;2023-08-01T08:50:58;20.60;99.90
3334;DHT22;1679;50.392;8.008;2023-08-01T08:53:25;20.20;99.90
3334;DHT22;1679;50.392;8.008;2023-08-01T08:55:51;19.50;99.90
3334;DHT22;1679;50.392;8.008;2023-08-01T08:58:17;18.80;99.90
3334;DHT22;1679;50.392;8.008;2023-08-01T09:00:43;18.30;99.90
3334;DHT22;1679;50.392;8.008;2023-08-01T09:03:09;18.00;99.90
3334;DHT22;1679;50.392;8.008;2023-08-01T09:05:44;18.10;99.90
3334;DHT22;1679;50.392;8.008;2023-08-01T09:08:17;18.30;99.90
3334;DHT22;1679;50.392;8.008;2023-08-01T09:10:43;18.80;99.90
3334;DHT22;1679;50.392;8.008;2023-08-01T09:13:09;19.00;99.90
3334;DHT22;1679;50.392;8.008;2023-08-01T09:15:35;19.20;99.90
3334;DHT22;1679;50.392;8.008;2023-08-01T09:18:06;19.30;99.90
3334;DHT22;1679;50.392;8.008;2023-08-01T09:20:46;19.90;99.90
3334;DHT22;1679;50.392;8.008;2023-08-01T09:23:12;20.00;99.90
3334;DHT22;1679;50.392;8.008;2023-08-01T09:25:38;19.90;99.90
3334;DHT22;1679;50.392;8.008;2023-08-01T09:28:15;19.80;99.90
3334;DHT22;1679;50.392;8.008;2023-08-01T09:30:53;19.60;99.90
3334;DHT22;1679;50.392;8.008;2023-08-01T09:33:22;19.40;99.90
3334;DHT22;1679;50.392;8.008;2023-08-01T09:35:51;19.30;99.90
3334;DHT22;1679;50.392;8.008;2023-08-01T09:38:17;19.30;99.90
3334;DHT22;1679;50.392;8.008;2023-08-01T09:40:44;19.20;99.90
3334;DHT22;1679;50.392;8.008;2023-08-01T09:43:12;19.50;99.90
3334;DHT22;1679;50.392;8.008;2023-08-01T09:45:49;20.20;99.90
3334;DHT22;1679;50.392;8.008;2023-08-01T09:48:26;20.90;99.90
3334;DHT22;1679;50.392;8.008;2023-08-01T09:50:52;21.60;99.90
3334;DHT22;1679;50.392;8.008;2023-08-01T09:53:18;21.70;99.90
3334;DHT22;1679;50.392;8.008;2023-08-01T09:55:46;21.30;99.90
3334;DHT22;1679;50.392;8.008;2023-08-01T09:58:13;20.50;99.90
3334;DHT22;1679;50.392;8.008;2023-08-01T10:00:40;19.70;99.90
3334;DHT22;1679;50.392;8.008;2023-08-01T10:03:06;19.20;99.90
3334;DHT22;1679;50.392;8.008;2023-08-01T10:05:33;19.00;99.90
3334;DHT22;1679;50.392;8.008;2023-08-01T10:08:00;19.10;99.90
3334;DHT22;1679;50.392;8.008;2023-08-01T10:10:27;19.10;99.90
3334;DHT22;1679;50.392;8.008;2023-08-01T10:12:54;19.10;99.90
3334;DHT22;1679;50.392;8.008;2023-08-01T10:15:21;19.20;99.90
3334;DHT22;1679;50.392;8.008;2023-08-01T10:17:47;19.20;99.90
3334;DHT22;1679;50.392;8.008;2023-08-01T10:20:14;19.30;99.90
3334;DHT22;1679;50.392;8.008;2023-08-01T10:22:41;19.30;99.90
3334;DHT22;1679;50.392;8.008;2023-08-01T10:25:08;19.50;99.90
3334;DHT22;1679;50.392;8.008;2023-08-01T10:27:34;20.00;99.90
3334;DHT22;1679;50.392;8.008;2023-08-01T10:30:03;20.40;99.90
3334;DHT22;1679;50.392;8.008;2023-08-01T10:32:37;20.60;99.90
3334;DHT22;1679;50.392;8.008;2023-08-01T10:35:03;20.70;99.90
3334;DHT22;1679;50.392;8.008;2023-08-01T10:37:44;20.80;99.90
3334;DHT22;1679;50.392;8.008;2023-08-01T10:40:15;21.10;99.90
3334;DHT22;1679;50.392;8.008;2023-08-01T10:42:44;20.90;99.90
3334;DHT22;1679;50.392;8.008;2023-08-01T10:45:22;20.50;99.90
3334;DHT22;1679;50.392;8.008;2023-08-01T10:47:51;20.30;99.90
3334;DHT22;1679;50.392;8.008;2023-08-01T10:50:17;20.10;99.90
3334;DHT22;1679;50.392;8.008;2023-08-01T10:52:43;20.40;99.90
3334;DHT22;1679;50.392;8.008;2023-08-01T10:55:10;21.20;99.90
3334;DHT22;1679;50.392;8.008;2023-08-01T10:57:46;21.60;99.90
3334;DHT22;1679;50.392;8.008;2023-08-01T11:00:16;21.80;99.90
3334;DHT22;1679;50.392;8.008;2023-08-01T11:02:51;21.70;99.90
3334;DHT22;1679;50.392;8.008;2023-08-01T11:05:17;21.50;99.90
3334;DHT22;1679;50.392;8.008;2023-08-01T11:07:56;21.00;99.90
3334;DHT22;1679;50.392;8.008;2023-08-01T11:10:24;20.70;99.90
3334;DHT22;1679;50.392;8.008;2023-08-01T11:12:50;20.70;99.90
3334;DHT22;1679;50.392;8.008;2023-08-01T11:15:16;20.70;99.90
3334;DHT22;1679;50.392;8.008;2023-08-01T11:18:09;20.80;99.90
3334;DHT22;1679;50.392;8.008;2023-08-01T11:20:38;21.00;99.90
3334;DHT22;1679;50.392;8.008;2023-08-01T11:23:04;20.90;99.90
3334;DHT22;1679;50.392;8.008;2023-08-01T11:25:41;20.90;99.90
3334;DHT22;1679;50.392;8.008;2023-08-01T11:28:10;20.80;99.90
3334;DHT22;1679;50.392;8.008;2023-08-01T11:30:37;20.60;99.90
3334;DHT22;1679;50.392;8.008;2023-08-01T11:33:24;20.60;99.90
3334;DHT22;1679;50.392;8.008;2023-08-01T11:35:54;20.80;99.90
3334;DHT22;1679;50.392;8.008;2023-08-01T11:38:26;21.00;99.90
3334;DHT22;1679;50.392;8.008;2023-08-01T11:40:54;21.10;99.90
3334;DHT22;1679;50.392;8.008;2023-08-01T11:43:21;21.10;99.90
3334;DHT22;1679;50.392;8.008;2023-08-01T11:45:54;21.20;99.90
3334;DHT22;1679;50.392;8.008;2023-08-01T11:48:23;21.60;99.90
3334;DHT22;1679;50.392;8.008;2023-08-01T11:50:49;21.80;99.90
3334;DHT22;1679;50.392;8.008;2023-08-01T11:53:22;21.80;99.90
3334;DHT22;1679;50.392;8.008;2023-08-01T11:55:50;21.80;99.90
3334;DHT22;1679;50.392;8.008;2023-08-01T11:58:29;21.70;99.90
3334;DHT22;1679;50.392;8.008;2023-08-01T12:01:06;21.80;99.90
3334;DHT22;1679;50.392;8.008;2023-08-01T12:03:32;21.90;99.90
3334;DHT22;1679;50.392;8.008;2023-08-01T12:06:07;21.80;99.90
3334;DHT22;1679;50.392;8.008;2023-08-01T12:08:34;22.00;99.90
3334;DHT22;1679;50.392;8.008;2023-08-01T12:11:00;21.90;99.90
3334;DHT22;1679;50.392;8.008;2023-08-01T12:13:26;21.80;99.90
3334;DHT22;1679;50.392;8.008;2023-08-01T12:15:53;21.90;99.90
3334;DHT22;1679;50.392;8.008;2023-08-01T12:18:25;22.10;99.90
3334;DHT22;1679;50.392;8.008;2023-08-01T12:20:53;22.10;99.90
3334;DHT22;1679;50.392;8.008;2023-08-01T12:23:19;22.00;99.90
3334;DHT22;1679;50.392;8.008;2023-08-01T12:25:45;21.80;99.90
3334;DHT22;1679;50.392;8.008;2023-08-01T12:28:15;21.60;99.90
3334;DHT22;1679;50.392;8.008;2023-08-01T12:30:41;21.40;99.90
3334;DHT22;1679;50.392;8.008;2023-08-01T12:33:08;21.30;99.90
3334;DHT22;1679;50.392;8.008;2023-08-01T12:35:33;21.40;99.90
3334;DHT22;1679;50.392;8.008;2023-08-01T12:38:00;21.50;99.90
3334;DHT22;1679;50.392;8.008;2023-08-01T12:40:25;21.70;99.90
3334;DHT22;1679;50.392;8.008;2023-08-01T12:42:51;21.90;99.90
3334;DHT22;1679;50.392;8.008;2023-08-01T12:45:18;22.00;99.90
3334;DHT22;1679;50.392;8.008;2023-08-01T12:47:43;21.90;99.90
3334;DHT22;1679;50.392;8.008;2023-08-01T12:50:09;21.80;99.90
3334;DHT22;1679;50.392;8.008;2023-08-01T12:52:35;21.60;99.90
3334;DHT22;1679;50.392;8.008;2023-08-01T12:55:00;21.30;99.90
3334;DHT22;1679;50.392;8.008;2023-08-01T12:57:26;21.00;99.90
3334;DHT22;1679;50.392;8.008;2023-08-01T12:59:51;20.80;99.90
3334;DHT22;1679;50.392;8.008;2023-08-01T13:02:17;20.90;99.90
3334;DHT22;1679;50.392;8.008;2023-08-01T13:04:43;21.00;99.90
3334;DHT22;1679;50.392;8.008;2023-08-01T13:07:09;21.10;99.90
3334;DHT22;1679;50.392;8.008;2023-08-01T13:09:35;21.20;99.90
3334;DHT22;1679;50.392;8.008;2023-08-01T13:12:00;21.40;99.90
3334;DHT22;1679;50.392;8.008;2023-08-01T13:14:26;21.40;99.90
3334;DHT22;1679;50.392;8.008;2023-08-01T13:16:51;21.40;99.90
3334;DHT22;1679;50.392;8.008;2023-08-01T13:19:18;21.40;99.90
3334;DHT22;1679;50.392;8.008;2023-08-01T13:21:45;21.40;99.90
3334;DHT22;1679;50.392;8.008;2023-08-01T13:24:11;21.70;99.90
3334;DHT22;1679;50.392;8.008;2023-08-01T13:26:36;21.60;99.90
3334;DHT22;1679;50.392;8.008;2023-08-01T13:29:03;21.80;99.90
3334;DHT22;1679;50.392;8.008;2023-08-01T13:31:29;21.90;99.90
3334;DHT22;1679;50.392;8.008;2023-08-01T13:33:57;21.90;99.90
3334;DHT22;1679;50.392;8.008;2023-08-01T13:36:23;21.90;99.90
3334;DHT22;1679;50.392;8.008;2023-08-01T13:38:49;21.70;99.90
3334;DHT22;1679;50.392;8.008;2023-08-01T13:41:16;21.50;99.90
3334;DHT22;1679;50.392;8.008;2023-08-01T13:43:42;21.20;99.90
3334;DHT22;1679;50.392;8.008;2023-08-01T13:46:18;21.00;99.90
3334;DHT22;1679;50.392;8.008;2023-08-01T13:48:45;20.90;99.90
3334;DHT22;1679;50.392;8.008;2023-08-01T13:51:11;21.00;99.90
3334;DHT22;1679;50.392;8.008;2023-08-01T13:53:38;21.10;99.90
3334;DHT22;1679;50.392;8.008;2023-08-01T13:56:07;21.30;99.90
3334;DHT22;1679;50.392;8.008;2023-08-01T13:58:34;21.30;99.90
3334;DHT22;1679;50.392;8.008;2023-08-01T14:01:03;21.40;99.90
3334;DHT22;1679;50.392;8.008;2023-08-01T14:03:30;21.30;99.90
3334;DHT22;1679;50.392;8.008;2023-08-01T14:05:55;21.00;99.90
3334;DHT22;1679;50.392;8.008;2023-08-01T14:08:22;21.00;99.90
3334;DHT22;1679;50.392;8.008;2023-08-01T14:10:47;21.10;99.90
3334;DHT22;1679;50.392;8.008;2023-08-01T14:13:13;21.30;99.90
3334;DHT22;1679;50.392;8.008;2023-08-01T14:15:38;21.20;99.90
3334;DHT22;1679;50.392;8.008;2023-08-01T14:18:04;21.40;99.90
3334;DHT22;1679;50.392;8.008;2023-08-01T14:20:29;21.50;99.90
3334;DHT22;1679;50.392;8.008;2023-08-01T14:22:55;21.50;99.90
3334;DHT22;1679;50.392;8.008;2023-08-01T14:25:20;21.40;99.90
3334;DHT22;1679;50.392;8.008;2023-08-01T14:27:46;21.20;99.90
3334;DHT22;1679;50.392;8.008;2023-08-01T14:30:11;21.20;99.90
3334;DHT22;1679;50.392;8.008;2023-08-01T14:32:37;21.20;99.90
3334;DHT22;1679;50.392;8.008;2023-08-01T14:35:04;20.90;99.90
3334;DHT22;1679;50.392;8.008;2023-08-01T14:37:35;21.00;99.90
3334;DHT22;1679;50.392;8.008;2023-08-01T14:40:00;21.00;99.90
3334;DHT22;1679;50.392;8.008;2023-08-01T14:42:27;21.10;99.90
3334;DHT22;1679;50.392;8.008;2023-08-01T14:44:53;21.30;99.90
3334;DHT22;1679;50.392;8.008;2023-08-01T14:47:20;21.20;99.90
3334;DHT22;1679;50.392;8.008;2023-08-01T14:49:45;20.90;99.90
3334;DHT22;1679;50.392;8.008;2023-08-01T14:52:11;20.70;99.90
3334;DHT22;1679;50.392;8.008;2023-08-01T14:54:36;20.80;99.90
3334;DHT22;1679;50.392;8.008;2023-08-01T14:57:04;21.00;99.90
3334;DHT22;1679;50.392;8.008;2023-08-01T14:59:29;21.10;99.90
3334;DHT22;1679;50.392;8.008;2023-08-01T15:01:55;21.20;99.90
3334;DHT22;1679;50.392;8.008;2023-08-01T15:04:20;21.10;99.90
3334;DHT22;1679;50.392;8.008;2023-08-01T15:06:46;21.00;99.90
3334;DHT22;1679;50.392;8.008;2023-08-01T15:09:11;20.90;99.90
3334;DHT22;1679;50.392;8.008;2023-08-01T15:11:41;21.00;99.90
3334;DHT22;1679;50.392;8.008;2023-08-01T15:14:06;20.70;99.90
3334;DHT22;1679;50.392;8.008;2023-08-01T15:16:32;20.60;99.90
3334;DHT22;1679;50.392;8.008;2023-08-01T15:18:57;20.50;99.90
3334;DHT22;1679;50.392;8.008;2023-08-01T15:21:23;20.30;99.90
3334;DHT22;1679;50.392;8.008;2023-08-01T15:23:52;20.00;99.90
3334;DHT22;1679;50.392;8.008;2023-08-01T15:26:19;19.60;99.90
3334;DHT22;1679;50.392;8.008;2023-08-01T15:28:44;19.10;99.90
3334;DHT22;1679;50.392;8.008;2023-08-01T15:31:10;18.80;99.90
3334;DHT22;1679;50.392;8.008;2023-08-01T15:33:37;18.50;99.90
3334;DHT22;1679;50.392;8.008;2023-08-01T15:36:04;18.40;99.90
3334;DHT22;1679;50.392;8.008;2023-08-01T15:38:31;18.30;99.90
3334;DHT22;1679;50.392;8.008;2023-08-01T15:40:57;17.80;99.90
3334;DHT22;1679;50.392;8.008;2023-08-01T15:43:24;17.40;99.90
3334;DHT22;1679;50.392;8.008;2023-08-01T15:45:50;17.30;99.90
3334;DHT22;1679;50.392;8.008;2023-08-01T15:48:16;17.40;99.90
3334;DHT22;1679;50.392;8.008;2023-08-01T15:50:41;17.60;99.90
3334;DHT22;1679;50.392;8.008;2023-08-01T15:53:07;17.60;99.90
3334;DHT22;1679;50.392;8.008;2023-08-01T15:55:32;17.60;99.90
3334;DHT22;1679;50.392;8.008;2023-08-01T15:57:58;17.70;99.90
3334;DHT22;1679;50.392;8.008;2023-08-01T16:00:23;17.80;99.90